$GPGSA,A,3,,05,,08,,,18,19,21,,,,1.7,1.3,1.0*38
$GPGSV,3,1,12,03,01,010,34,05,19,210,43,07,13,084,38,08,49,085,49*72
$GPGSV,3,2,12,10,00,189,00,15,56,281,39,18,19,323,41,19,18,030,00*78
$GPGSV,3,3,12,21,06,304,30,28,63,125,47,33,16,220,00,37,28,178,38*7D
$GPGLL,6003.9499,N,01940.4863,E,131838,A,D*4F
$GPBOD,,T,,M,,*47
$PGRME,6.0,M,11.3,M,12.8,M*20
$PGRMZ,-4,f,3*32
$PGRMM,WGS 84*06
$GPRTE,1,1,c,*37
$GPRMC,131840,A,6003.9502,N,01940.4884,E,2.2,72.4,280510,4.8,E,D*25
$GPRMB,A,,,,,,,,,,,,A,D*0E
$GPGGA,131840,6003.9502,N,01940.4884,E,2,05,1.3,-0.8,M,21.7,M,,*6F
$GPGSA,A,3,,05,,08,,,18,19,21,,,,1.7,1.3,1.0*38
$GPGSV,3,1,12,03,01,010,00,05,19,210,41,07,13,084,39,08,49,085,49*76
$GPGSV,3,2,12,10,00,189,00,15,56,281,39,18,19,323,40,19,18,030,37*7D
$GPGSV,3,3,12,21,06,304,30,28,63,125,47,33,16,220,00,37,28,178,37*72
$GPGLL,6003.9502,N,01940.4884,E,131840,A,D*4A
$GPBOD,,T,,M,,*47
$PGRME,6.0,M,11.4,M,13.0,M*2E
$PGRMZ,-3,f,3*35
$PGRMM,WGS 84*06
$GPRTE,1,1,c,*37
$GPRMC,131842,A,6003.9505,N,01940.4904,E,1.9,76.3,280510,4.8,E,D*22
$GPRMB,A,,,,,,,,,,,,A,D*0E
$GPGGA,131842,6003.9505,N,01940.4904,E,2,05,1.2,-0.6,M,21.7,M,,*6C
$GPGSA,A,3,,05,,08,,,18,19,21,,,,1.6,1.2,1.0*38
$GPGSV,3,1,12,03,01,010,00,05,19,210,40,07,13,084,38,08,49,085,48*77
$GPGSV,3,2,12,10,00,189,00,15,56,281,40,18,19,323,39,19,18,030,36*7C
$GPGSV,3,3,12,21,06,304,34,28,63,125,47,33,16,220,00,37,28,178,00*72
$GPGLL,6003.9505,N,01940.4904,E,131842,A,D*46
$GPBOD,,T,,M,,*47
$PGRME,5.9,M,11.7,M,13.2,M*25
$PGRMZ,-2,f,3*34
$PGRMM,WGS 84*06
$GPRTE,1,1,c,*37
$GPRMC,131844,A,6003.9510,N,01940.4927,E,2.1,75.0,280510,4.8,E,D*2A
$GPRMB,A,,,,,,,,,,,,A,D*0E
$GPGGA,131844,6003.9510,N,01940.4927,E,2,05,1.6,-0.6,M,21.7,M,,*6B
$GPGSA,A,3,,05,,08,,,18,19,21,,,,1.9,1.6,1.0*33
$GPGSV,3,1,12,03,01,010,00,05,19,210,39,07,13,084,37,08,49,085,48*76
$GPGSV,3,2,12,10,00,189,00,15,56,281,40,18,19,323,38,19,18,030,00*78
$GPGSV,3,3,12,21,06,304,35,28,63,124,47,33,16,220,00,37,28,178,00*72
$GPGLL,6003.9510,N,01940.4927,E,131844,A,D*45
$GPBOD,,T,,M,,*47
$PGRME,6.0,M,11.2,M,12.8,M*21
$PGRMZ,-2,f,3*34
$PGRMM,WGS 84*06
$GPRTE,1,1,c,*37
$GPRMC,131846,A,6003.9513,N,01940.4948,E,2.1,77.6,280510,4.8,E,D*26
$GPRMB,A,,,,,,,,,,,,A,D*0E
$GPGGA,131846,6003.9513,N,01940.4948,E,2,08,1.4,-0.8,M,21.7,M,,*62
$GPGSA,A,3,,05,07,08,,15,18,19,21,28,,,1.8,1.4,1.1*38
$GPGSV,3,1,12,03,01,010,00,05,19,210,38,07,13,084,36,08,49,085,47*79
$GPGSV,3,2,12,10,00,189,00,15,56,281,41,18,19,323,38,19,18,030,41*7C
$GPGSV,3,3,12,21,06,304,35,28,63,124,48,33,16,220,00,37,28,178,00*7D
$GPGLL,6003.9513,N,01940.4948,E,131846,A,D*4D
$GPBOD,,T,,M,,*47
$PGRME,3.7,M,5.2,M,6.4,M*2F
$PGRMZ,-3,f,3*35
$PGRMM,WGS 84*06
$GPRTE,1,1,c,*37
$GPRMC,131848,A,6003.9517,N,01940.4969,E,2.2,67.8,280510,4.8,E,D*23
$GPRMB,A,,,,,,,,,,,,A,D*0E
$GPGGA,131848,6003.9517,N,01940.4969,E,2,08,2.0,-0.3,M,21.7,M,,*67
$GPGSA,A,3,,05,07,08,,15,18,19,21,28,,,2.5,2.0,1.0*30
$GPGSV,3,1,12,03,01,010,00,05,19,210,37,07,13,084,35,08,49,085,47*75
$GPGSV,3,2,12,10,00,189,00,15,56,281,42,18,19,323,37,19,18,030,41*70
$GPGSV,3,3,12,21,06,304,35,28,63,124,47,33,16,220,00,37,28,178,00*72
$GPGLL,6003.9517,N,01940.4969,E,131848,A,D*44
$GPBOD,,T,,M,,*47
$PGRME,4.1,M,5.6,M,6.9,M*27
$PGRMZ,-1,f,3*37
$PGRMM,WGS 84*06
$GPRTE,1,1,c,*37
$GPRMC,131850,A,6003.9521,N,01940.4991,E,2.2,69.9,280510,4.8,E,D*27
$GPRMB,A,,,,,,,,,,,,A,D*0E
$GPGGA,131850,6003.9521,N,01940.4991,E,2,08,1.0,-0.1,M,21.7,M,,*6D
$GPGSA,A,3,,05,07,08,,15,18,19,21,28,,,1.7,1.0,1.2*30
$GPGSV,3,1,12,03,01,010,00,05,19,210,37,07,13,084,39,08,49,085,47*79
$GPGSV,3,2,12,10,00,189,00,15,56,281,41,18,19,323,36,19,18,030,40*73
$GPGSV,3,3,12,21,06,304,36,28,63,124,48,33,16,220,00,37,28,178,00*7E
$GPGLL,6003.9521,N,01940.4991,E,131850,A,D*4F
$GPBOD,,T,,M,,*47
$PGRME,3.3,M,4.7,M,5.7,M*2F
$PGRMZ,0,f,3*1B
$PGRMM,WGS 84*06
$GPRTE,1,1,c,*37
$GPRMC,131852,A,6003.9525,N,01940.5014,E,2.2,73.4,280510,4.8,E,A*27
$GPRMB,A,,,,,,,,,,,,A,A*0B
$GPGGA,131852,6003.9525,N,01940.5014,E,1,08,0.9,-0.2,M,21.7,M,,*66
$GPGSA,A,3,,05,07,08,,15,18,19,21,28,,,1.6,0.9,1.2*39
$GPGSV,3,1,12,03,01,010,00,05,19,210,38,07,13,084,39,08,49,085,46*77
$GPGSV,3,2,12,10,00,189,00,15,56,281,42,18,19,323,38,19,18,030,40*7E
$GPGSV,3,3,12,21,06,304,37,28,63,124,47,33,16,220,00,37,28,178,38*7B
$GPGLL,6003.9525,N,01940.5014,E,131852,A,A*49
$GPBOD,,T,,M,,*47
$PGRME,3.3,M,4.7,M,5.7,M*2F
$PGRMZ,-1,f,3*37
$PGRMM,WGS 84*06
$GPRTE,1,1,c,*37